Flight Track Log - Related Links

Times and Time Zones

All times are in EDT time to prevent confusion due to time zone crossing. See the SWA268 flight status page for this flight to view local times or setup timezone preferences in your user account.

Time Position Orientation Groundspeed Altitude Reporting Facility
EDT Latitude Longitude Course Direction KTS MPH feet Rate Location/Type
Sun 01:59:30 PM 36.0694 -115.2475 263° West 223 257 5,100  Level Los Center
Sun 02:00:09 PM 36.0331 -115.2708 207° Southwest 238 274 6,100 2,149 Climbing Los Center
Sun 02:00:37 PM 35.9947 -115.2906 203° Southwest 273 314 7,500 3,524 Climbing Los Center
Sun 02:01:12 PM 35.9492 -115.2906 180° South 283 326 9,800 3,155 Climbing Los Center
Sun 02:02:14 PM 35.8678 -115.2489 157° South 308 354 12,600 2,661 Climbing Los Center
Sun 02:03:16 PM 35.8356 -115.1328 109° East 357 411 15,300 2,855 Climbing Los Center
Sun 02:04:18 PM 35.8264 -115.0061 95° East 378 435 18,500 2,613 Climbing Los Center
Sun 02:05:20 PM 35.8383 -114.8689 84° East 401 461 20,700 2,371 Climbing Los Center
Sun 02:06:22 PM 35.8517 -114.7253 83° East 420 483 23,400 2,516 Climbing Los Center
Sun 02:07:24 PM 35.8672 -114.5475 84° East 435 501 25,900 1,984 Climbing Los Center
Sun 02:08:26 PM 35.8814 -114.3894 84° East 470 541 27,500 1,548 Climbing Los Center
Sun 02:09:28 PM 35.8950 -114.2264 84° East 485 558 29,100 1,488 Climbing Los Center
Sun 02:10:31 PM 35.9092 -114.0575 84° East 494 568 30,600 1,488 Climbing Los Center
Sun 02:11:33 PM 35.9197 -113.8822 86° East 510 587 32,200 1,742 Climbing Los Center
Sun 02:12:35 PM 35.8881 -113.6744 101° East 516 594 34,200 1,597 Climbing Los Center
Sun 02:13:37 PM 35.8658 -113.5322 101° East 515 593 35,500 1,355 Climbing Los Center
Sun 02:14:39 PM 35.8325 -113.3278 101° East 510 587 37,000 726 Climbing Los Center
Sun 02:15:41 PM 35.8047 -113.1567 101° East 509 586 37,000  Level Los Center
Sun 02:16:43 PM 35.7769 -112.9850 101° East 510 587 37,000  Level Los Center
Sun 02:17:45 PM 35.7481 -112.8094 101° East 507 583 37,000  Level Los Center
Sun 02:18:47 PM 35.7203 -112.6444 102° East 506 582 37,000  Level Los Center
Sun 02:19:50 PM 35.6922 -112.4739 101° East 507 583 37,000  Level Los Center
Sun 02:20:52 PM 35.6575 -112.2719 102° East 505 581 37,000  Level Los Center
Sun 02:21:54 PM 35.6281 -112.1053 102° East 502 578 37,000  Level Los Center
Sun 02:22:13 PM 35.6214 -112.0697 103° East 505 581 37,000  Level Albuquerque Center
Sun 02:23:15 PM 35.5933 -111.9028 102° East 502 578 37,000  Level Albuquerque Center
Sun 02:24:17 PM 35.5867 -111.6992 92° East 501 577 37,000  Level Albuquerque Center
Sun 02:25:18 PM 35.5817 -111.5286 92° East 500 575 37,000  Level Albuquerque Center
Sun 02:26:20 PM 35.5761 -111.3508 92° East 506 582 37,000  Level Albuquerque Center
Sun 02:27:22 PM 35.5700 -111.1586 92° East 506 582 37,000  Level Albuquerque Center
Sun 02:28:24 PM 35.5647 -110.9942 92° East 505 581 37,000  Level Albuquerque Center
Sun 02:29:26 PM 35.5586 -110.8275 93° East 507 583 37,000  Level Albuquerque Center
Sun 02:30:28 PM 35.5506 -110.6331 93° East 511 588 37,000  Level Albuquerque Center
Sun 02:31:30 PM 35.5456 -110.4689 92° East 506 582 37,000  Level Albuquerque Center
Sun 02:32:32 PM 35.5392 -110.2761 92° East 506 582 37,000  Level Albuquerque Center
Sun 02:33:34 PM 35.5319 -110.1108 93° East 507 583 37,000  Level Albuquerque Center
Sun 02:34:36 PM 35.5244 -109.9189 93° East 506 582 37,000  Level Albuquerque Center
Sun 02:35:38 PM 35.5178 -109.7550 93° East 505 581 37,000 -387 Level Albuquerque Center
Sun 02:36:40 PM 35.5092 -109.5622 93° East 506 582 36,200 -871 Descending Albuquerque Center
Sun 02:37:42 PM 35.5014 -109.3950 93° East 511 588 35,200 -968 Descending Albuquerque Center
Sun 02:38:44 PM 35.4928 -109.1994 93° East 515 593 34,200 -919 Descending Albuquerque Center
Sun 02:39:46 PM 35.4844 -109.0322 93° East 516 594 33,300 -968 Descending Albuquerque Center
Sun 02:40:48 PM 35.4772 -108.8392 93° East 512 589 32,200 -1,016 Descending Albuquerque Center
Sun 02:41:50 PM 35.4825 -108.6761 88° East 506 582 31,200 -1,016 Descending Albuquerque Center
Sun 02:42:52 PM 35.4864 -108.4872 88° East 500 575 30,100 -1,016 Descending Albuquerque Center
Sun 02:43:54 PM 35.4883 -108.3297 89° East 491 565 29,100 -1,113 Descending Albuquerque Center
Sun 02:44:56 PM 35.4761 -108.1508 95° East 478 550 27,800 -1,548 Descending Albuquerque Center
Sun 02:45:58 PM 35.4664 -108.0011 95° East 467 537 25,900 -1,984 Descending Albuquerque Center
Sun 02:47:00 PM 35.4547 -107.8333 95° East 450 518 23,700 -1,935 Descending Albuquerque Center
Sun 02:48:02 PM 35.4450 -107.6939 95° East 436 502 21,900 -1,887 Descending Albuquerque Center
Sun 02:49:04 PM 35.4342 -107.5381 95° East 417 480 19,800 -1,887 Descending Albuquerque Center
Sun 02:50:06 PM 35.4267 -107.4086 94° East 404 465 18,000 -1,846 Descending Albuquerque Center
Sun 02:50:22 PM 35.4192 -107.3669 102° East 391 450 17,400 -2,100 Descending Albuquerque Center
Sun 02:50:46 PM 35.4028 -107.3192 113° Southeast 392 451 16,600 -1,565 Descending Albuquerque Center
Sun 02:51:08 PM 35.3781 -107.2761 125° Southeast 391 450 16,200 -1,180 Descending Albuquerque Center
Sun 02:51:47 PM 35.3408 -107.2044 122° Southeast 366 421 15,400 -1,065 Descending Albuquerque Center
Sun 02:52:10 PM 35.3311 -107.1847 121° Southeast 373 429 15,100 -1,574 Descending Albuquerque Center
Sun 02:52:48 PM 35.2894 -107.1031 122° Southeast 351 404 13,800 -1,548 Descending Albuquerque Center
Sun 02:53:12 PM 35.2828 -107.0806 110° East 356 410 13,500 -1,475 Descending Albuquerque Center
Sun 02:53:49 PM 35.2581 -106.9942 109° East 341 392 12,300 -1,548 Descending Albuquerque Center
Sun 02:54:14 PM 35.2544 -106.9708 101° East 339 390 11,900 -1,500 Descending Albuquerque Center
Sun 02:54:49 PM 35.2317 -106.8892 109° East 326 375 10,800 -1,645 Descending Albuquerque Center
Sun 02:55:16 PM 35.2197 -106.8436 108° East 329 379 10,200 -885 Descending Albuquerque Center
Sun 02:55:50 PM 35.2033 -106.7872 110° East 316 364 9,900 -677 Descending Albuquerque Center
Sun 02:56:18 PM 35.1922 -106.7408 106° East 316 364 9,500 -900 Descending Albuquerque Center
Sun 02:56:50 PM 35.1764 -106.6931 112° Southeast 287 330 9,000 -484 Descending Albuquerque Center
Sun 02:57:20 PM 35.1653 -106.6506 108° East 296 341 9,000  Level Albuquerque Center
Sun 02:57:57 PM 35.1472 -106.5992 113° Southeast 240 276 9,000 -393 Level Albuquerque Center
Sun 02:58:21 PM 35.1408 -106.5747 108° East 260 299 8,600 -1,091 Descending Albuquerque Center
Sun 02:58:52 PM 35.1278 -106.5367 113° Southeast 214 246 8,000 -1,161 Descending Albuquerque Center
Sun 02:59:23 PM 35.1097 -106.5147 135° Southeast 236 272 7,400 -1,100 Descending Albuquerque Center
Sun 02:59:52 PM 35.0803 -106.5206 189° South 182 209 6,900 -871 Descending Albuquerque Center
Sun 03:00:25 PM 35.0594 -106.5200 179° South 198 228 6,500 -885 Descending Albuquerque Center
Sun 03:00:53 PM 35.0436 -106.5431 230° Southwest 142 163 6,000 -774 Descending Albuquerque Center
Sun 03:01:27 PM 35.0436 -106.5594 270° West 167 192 5,700 -438 Descending Albuquerque Center
Sun 03:02:29 PM 35.0461 -106.6136 273° West 155 178 5,300 -387 Descending Albuquerque Center

Login

Don't have an account? Register now (free) for customized features, flight alerts, and more!